createdAt,value
2018-07-06T00:00:34.222Z,3.27
2018-07-06T00:03:08.139Z,3.60
2018-07-06T00:05:42.146Z,3.73
2018-07-06T00:08:16.256Z,3.80
2018-07-06T00:10:50.560Z,3.53
2018-07-06T00:13:24.578Z,3.10
2018-07-06T00:15:58.809Z,3.57
2018-07-06T00:18:32.822Z,3.80
2018-07-06T00:21:06.818Z,3.40
2018-07-06T00:23:41.136Z,4.03
2018-07-06T00:26:15.140Z,3.17
2018-07-06T00:28:49.168Z,2.87
2018-07-06T00:31:23.162Z,2.70
2018-07-06T00:33:57.076Z,3.37
2018-07-06T00:36:31.077Z,3.30
2018-07-06T00:39:05.397Z,3.63
2018-07-06T00:41:39.618Z,4.10
2018-07-06T00:44:13.739Z,4.80
2018-07-06T00:46:48.149Z,4.43
2018-07-06T00:49:22.150Z,5.43
2018-07-06T00:51:57.223Z,4.27
2018-07-06T00:54:31.408Z,4.63
2018-07-06T00:57:05.529Z,5.07
2018-07-06T00:59:39.433Z,4.40
2018-07-06T01:02:13.539Z,4.77
2018-07-06T01:04:48.070Z,4.60
2018-07-06T01:07:22.178Z,4.80
2018-07-06T01:09:56.181Z,4.60
2018-07-06T01:12:34.190Z,4.70
2018-07-06T01:15:12.192Z,4.53
2018-07-06T01:17:46.408Z,4.63
2018-07-06T01:20:20.830Z,4.40
2018-07-06T01:22:55.664Z,4.50
2018-07-06T01:25:30.071Z,5.57
2018-07-06T01:28:04.186Z,4.43
2018-07-06T01:30:38.519Z,5.33
2018-07-06T01:33:12.516Z,5.47
2018-07-06T01:35:50.105Z,5.37
2018-07-06T01:38:24.127Z,5.53
2018-07-06T01:40:58.430Z,5.70
2018-07-06T01:43:32.563Z,5.67
2018-07-06T01:46:06.999Z,5.33
2018-07-06T01:48:41.482Z,5.67
2018-07-06T01:51:15.493Z,5.80
2018-07-06T01:53:49.605Z,5.87
2018-07-06T01:56:24.145Z,6.10
2018-07-06T01:58:58.474Z,5.63
2018-07-06T02:01:32.459Z,5.53
2018-07-06T02:04:06.567Z,5.80
2018-07-06T02:06:40.474Z,6.67
2018-07-06T02:09:14.600Z,5.63
2018-07-06T02:11:48.720Z,6.03
2018-07-06T02:14:22.829Z,5.87
2018-07-06T02:16:57.126Z,5.80
2018-07-06T02:19:31.466Z,6.80
2018-07-06T02:22:05.870Z,6.40
2018-07-06T02:24:39.981Z,6.10
2018-07-06T02:27:14.248Z,6.33
2018-07-06T02:29:48.518Z,6.03
2018-07-06T02:32:22.618Z,6.03
2018-07-06T02:34:56.841Z,5.90
2018-07-06T02:37:31.076Z,6.63
2018-07-06T02:40:05.579Z,6.20
2018-07-06T02:42:39.683Z,6.40
2018-07-06T02:45:14.139Z,6.73
2018-07-06T02:47:48.461Z,6.87
2018-07-06T02:50:22.648Z,6.77
2018-07-06T02:52:56.756Z,6.37
2018-07-06T02:55:31.190Z,7.30
2018-07-06T02:58:05.083Z,6.20
2018-07-06T03:00:39.000Z,6.77
2018-07-06T03:03:13.210Z,6.93
2018-07-06T03:05:47.616Z,7.10
2018-07-06T03:08:22.468Z,6.50
2018-07-06T03:10:56.778Z,6.80
2018-07-06T03:13:31.006Z,6.63
2018-07-06T03:16:05.317Z,6.47
2018-07-06T03:18:39.527Z,6.40
2018-07-06T03:21:13.651Z,7.23
2018-07-06T03:23:47.967Z,8.30
2018-07-06T03:26:22.171Z,6.70
2018-07-06T03:28:56.491Z,7.50
2018-07-06T03:31:31.747Z,7.03
2018-07-06T03:34:05.857Z,6.70
2018-07-06T03:36:40.166Z,6.73
2018-07-06T03:39:14.196Z,7.07
2018-07-06T03:41:49.608Z,7.00
2018-07-06T03:44:23.820Z,7.70
2018-07-06T03:46:58.037Z,7.00
2018-07-06T03:49:32.257Z,7.20
2018-07-06T03:52:06.577Z,6.50
2018-07-06T03:54:41.418Z,6.83
2018-07-06T03:57:18.599Z,6.73
2018-07-06T03:59:52.991Z,6.37
2018-07-06T04:02:27.207Z,6.50
2018-07-06T04:05:01.436Z,6.70
2018-07-06T04:07:36.464Z,7.13
2018-07-06T04:10:10.586Z,6.27
2018-07-06T04:12:45.222Z,6.03
2018-07-06T04:15:19.736Z,6.80
2018-07-06T04:17:54.166Z,7.53
2018-07-06T04:20:28.677Z,7.73
2018-07-06T04:23:03.399Z,7.20
2018-07-06T04:25:38.449Z,7.67
2018-07-06T04:28:12.753Z,6.33
2018-07-06T04:30:46.975Z,6.70
2018-07-06T04:33:21.089Z,6.50
2018-07-06T04:35:54.995Z,6.20
2018-07-06T04:38:29.618Z,5.57
2018-07-06T04:41:03.609Z,5.13
2018-07-06T04:43:37.842Z,6.20
2018-07-06T04:46:12.160Z,5.13
2018-07-06T04:48:46.557Z,5.20
2018-07-06T04:51:21.271Z,5.53
2018-07-06T04:53:55.605Z,4.30
2018-07-06T04:56:30.150Z,5.13
2018-07-06T04:59:04.571Z,5.03
2018-07-06T05:01:38.870Z,4.20
2018-07-06T05:04:13.527Z,4.47
2018-07-06T05:06:47.702Z,4.87
2018-07-06T05:09:22.040Z,4.33
2018-07-06T05:11:56.148Z,4.13
2018-07-06T05:14:30.468Z,3.77
2018-07-06T05:17:04.569Z,3.70
2018-07-06T05:19:38.791Z,4.50
2018-07-06T05:22:13.119Z,3.63
2018-07-06T05:24:47.421Z,4.33
2018-07-06T05:27:22.036Z,4.20
2018-07-06T05:29:56.149Z,4.70
2018-07-06T05:32:30.183Z,4.07
2018-07-06T05:35:04.081Z,3.70
2018-07-06T05:37:38.012Z,4.30
2018-07-06T05:40:12.109Z,4.27
2018-07-06T05:42:46.135Z,4.20
2018-07-06T05:45:20.528Z,4.60
2018-07-06T05:47:55.153Z,4.00
2018-07-06T05:53:43.144Z,4.93
2018-07-06T05:56:19.883Z,5.13
2018-07-06T05:58:55.241Z,4.00
2018-07-06T06:01:30.787Z,4.47
2018-07-06T06:04:09.582Z,4.23
2018-07-06T06:06:45.240Z,3.60
2018-07-06T06:09:23.882Z,3.13
2018-07-06T06:11:57.992Z,3.50
2018-07-06T06:14:32.099Z,4.13
2018-07-06T06:17:02.909Z,3.30
2018-07-06T06:19:33.048Z,3.93
2018-07-06T06:22:04.073Z,3.73
2018-07-06T06:24:34.202Z,3.63
2018-07-06T06:27:05.760Z,3.20
2018-07-06T06:29:37.225Z,3.50
2018-07-06T06:32:08.959Z,3.57
2018-07-06T06:34:40.100Z,3.27
2018-07-06T06:37:18.709Z,3.40
2018-07-06T06:39:49.252Z,3.30
2018-07-06T06:42:19.780Z,3.40
2018-07-06T06:44:50.056Z,4.27
2018-07-06T06:47:20.418Z,3.50
2018-07-06T06:49:50.535Z,3.33
2018-07-06T06:52:20.562Z,3.63
2018-07-06T06:54:50.995Z,3.60
2018-07-06T06:57:21.219Z,3.70
2018-07-06T06:59:51.128Z,3.60
2018-07-06T07:02:21.140Z,4.07
2018-07-06T07:04:51.050Z,4.07
2018-07-06T07:07:21.583Z,3.67
2018-07-06T07:09:52.023Z,2.90
2018-07-06T07:12:22.217Z,2.80
2018-07-06T07:14:54.277Z,3.10
2018-07-06T07:17:24.504Z,3.83
2018-07-06T07:19:55.238Z,3.47
2018-07-06T07:22:25.049Z,3.30
2018-07-06T07:24:55.064Z,2.73
2018-07-06T07:27:25.099Z,3.50
2018-07-06T07:29:54.686Z,3.27
2018-07-06T07:32:25.422Z,3.20
2018-07-06T07:34:55.335Z,3.10
2018-07-06T07:37:25.153Z,3.00
2018-07-06T07:39:56.492Z,3.70
2018-07-06T07:42:27.640Z,3.00
2018-07-06T07:44:57.347Z,3.40
2018-07-06T07:47:27.379Z,3.50
2018-07-06T07:49:57.187Z,3.00
2018-07-06T07:52:31.232Z,3.10
2018-07-06T07:55:01.114Z,2.80
2018-07-06T07:57:31.654Z,2.80
2018-07-06T08:00:01.853Z,3.10
2018-07-06T08:02:31.979Z,3.10
2018-07-06T08:05:01.573Z,3.40
2018-07-06T08:07:31.392Z,2.80
2018-07-06T08:10:01.819Z,3.30
2018-07-06T08:12:32.158Z,3.67
2018-07-06T08:15:03.077Z,2.90
2018-07-06T08:17:32.999Z,2.97
2018-07-06T08:20:02.819Z,3.20
2018-07-06T08:22:32.614Z,3.07
2018-07-06T08:25:03.344Z,3.00
2018-07-06T08:27:33.239Z,3.07
2018-07-06T08:30:03.807Z,3.27
2018-07-06T08:32:34.008Z,3.23
2018-07-06T08:35:08.328Z,3.10
2018-07-06T08:37:46.432Z,4.10
2018-07-06T08:40:17.589Z,3.10
2018-07-06T08:42:49.234Z,4.00
2018-07-06T08:45:19.459Z,3.57
2018-07-06T08:48:04.726Z,3.57
2018-07-06T08:50:35.159Z,2.87
2018-07-06T08:53:09.179Z,3.10
2018-07-06T08:55:38.982Z,2.90
2018-07-06T08:58:09.402Z,2.90
2018-07-06T09:00:39.620Z,3.23
2018-07-06T09:03:10.068Z,3.47
2018-07-06T09:05:40.379Z,3.30
2018-07-06T09:08:10.499Z,3.10
2018-07-06T09:10:40.622Z,2.77
2018-07-06T09:13:10.441Z,2.67
2018-07-06T09:15:40.558Z,2.93
2018-07-06T09:18:14.159Z,3.13
2018-07-06T09:20:48.360Z,3.03
2018-07-06T09:23:18.476Z,2.93
2018-07-06T09:25:50.016Z,2.67
2018-07-06T09:28:20.228Z,2.90
2018-07-06T09:30:50.243Z,3.40
2018-07-06T09:33:20.301Z,2.83
2018-07-06T09:35:50.261Z,3.30
2018-07-06T09:38:20.517Z,2.77
2018-07-06T09:40:54.120Z,2.40
2018-07-06T09:43:25.480Z,3.17
2018-07-06T09:45:55.600Z,3.30
2018-07-06T09:48:25.808Z,2.70
2018-07-06T09:50:56.499Z,2.97
2018-07-06T09:53:27.499Z,3.23
2018-07-06T09:55:57.504Z,2.97
2018-07-06T09:58:27.412Z,3.53
2018-07-06T10:01:00.808Z,3.27
2018-07-06T10:03:30.934Z,2.33
2018-07-06T10:06:01.245Z,2.73
2018-07-06T10:08:32.199Z,2.63
2018-07-06T10:11:02.164Z,2.90
2018-07-06T10:13:32.140Z,2.57
2018-07-06T10:16:02.762Z,2.73
2018-07-06T10:18:33.399Z,2.80
2018-07-06T10:21:05.238Z,2.60
2018-07-06T10:23:35.479Z,2.50
2018-07-06T10:26:06.519Z,3.03
2018-07-06T10:28:40.411Z,2.50
2018-07-06T10:31:14.620Z,2.60
2018-07-06T10:33:44.970Z,2.90
2018-07-06T10:36:15.239Z,2.37
2018-07-06T10:38:46.213Z,2.50
2018-07-06T10:41:19.728Z,2.67
2018-07-06T10:43:50.458Z,2.80
2018-07-06T10:46:20.359Z,2.37
2018-07-06T10:48:50.472Z,2.60
2018-07-06T10:51:21.210Z,2.83
2018-07-06T10:53:51.139Z,3.00
2018-07-06T10:56:21.550Z,2.70
2018-07-06T10:58:51.567Z,2.53
2018-07-06T11:01:21.799Z,3.10
2018-07-06T11:03:52.438Z,3.10
2018-07-06T11:06:23.051Z,3.33
2018-07-06T11:08:54.865Z,3.00
2018-07-06T11:11:25.139Z,3.13
2018-07-06T11:13:55.060Z,2.90
2018-07-06T11:16:24.979Z,3.47
2018-07-06T11:18:54.868Z,2.80
2018-07-06T11:21:25.297Z,3.30
2018-07-06T11:23:55.313Z,3.20
2018-07-06T11:26:25.533Z,3.00
2018-07-06T11:28:55.559Z,3.53
2018-07-06T11:31:25.674Z,3.03
2018-07-06T11:33:55.893Z,3.00
2018-07-06T11:36:25.807Z,3.00
2018-07-06T11:38:55.719Z,2.80
2018-07-06T11:41:25.742Z,2.80
2018-07-06T11:43:55.758Z,2.67
2018-07-06T11:46:26.079Z,2.77
2018-07-06T11:48:55.999Z,2.70
2018-07-06T11:51:26.219Z,2.80
2018-07-06T11:53:56.038Z,2.97
2018-07-06T11:56:26.163Z,2.43
2018-07-06T11:58:56.062Z,3.10
2018-07-06T12:01:25.971Z,3.10
2018-07-06T12:03:56.644Z,4.30
2018-07-06T12:06:27.459Z,3.50
2018-07-06T12:08:57.579Z,2.93
2018-07-06T12:11:27.473Z,3.20
2018-07-06T12:13:57.896Z,3.40
2018-07-06T12:16:31.293Z,3.10
2018-07-06T12:19:01.828Z,2.93
2018-07-06T12:21:32.159Z,3.47
2018-07-06T12:24:02.178Z,3.57
2018-07-06T12:26:32.179Z,3.40
2018-07-06T12:29:01.730Z,3.70
2018-07-06T12:31:32.015Z,3.43
2018-07-06T12:34:02.660Z,3.47
2018-07-06T12:36:33.238Z,3.13
2018-07-06T12:39:03.693Z,3.30
2018-07-06T12:41:33.744Z,3.57
2018-07-06T12:44:04.037Z,4.60
2018-07-06T12:46:35.077Z,3.60
2018-07-06T12:49:05.202Z,3.43
2018-07-06T12:51:35.838Z,3.27
2018-07-06T12:54:05.958Z,3.50
2018-07-06T12:56:36.479Z,3.98
2018-07-06T12:59:06.487Z,5.10
2018-07-06T13:01:43.580Z,4.65
2018-07-06T13:04:27.001Z,8.53
2018-07-06T13:06:57.539Z,11.03
2018-07-06T13:09:27.345Z,5.90
2018-07-06T13:11:57.463Z,5.63
2018-07-06T13:17:07.139Z,5.80
2018-07-06T13:19:37.543Z,5.80
2018-07-06T13:22:07.579Z,5.60
2018-07-06T13:24:38.098Z,5.20
2018-07-06T13:27:10.161Z,5.62
2018-07-06T13:29:40.079Z,6.20
2018-07-06T13:32:09.674Z,6.10
2018-07-06T13:34:40.119Z,6.30
2018-07-06T13:37:10.017Z,5.97
2018-07-06T13:39:40.033Z,5.87
2018-07-06T13:42:10.573Z,6.70
2018-07-06T13:44:40.800Z,5.90
2018-07-06T13:47:10.702Z,5.97
2018-07-06T13:49:40.609Z,5.70
2018-07-06T13:52:11.160Z,7.37
2018-07-06T13:54:41.179Z,49.17
2018-07-06T13:57:10.556Z,25.47
2018-07-06T13:59:40.598Z,7.00
2018-07-06T14:02:10.692Z,6.53
2018-07-06T14:04:41.125Z,7.00
2018-07-06T14:07:11.226Z,6.67
2018-07-06T14:09:41.778Z,5.50
2018-07-06T14:12:12.238Z,6.40
2018-07-06T14:14:43.877Z,6.03
2018-07-06T14:17:15.939Z,6.60
2018-07-06T14:19:46.459Z,6.70
2018-07-06T14:22:16.978Z,6.83
2018-07-06T14:24:46.820Z,6.70
2018-07-06T14:27:18.127Z,6.40
2018-07-06T14:29:48.871Z,6.57
2018-07-06T14:32:19.098Z,7.20
2018-07-06T14:34:53.666Z,6.23
2018-07-06T14:37:24.440Z,6.57
2018-07-06T14:39:56.101Z,5.93
2018-07-06T14:42:26.439Z,6.80
2018-07-06T14:44:56.755Z,6.17
2018-07-06T14:47:27.598Z,6.03
2018-07-06T14:49:58.007Z,6.20
2018-07-06T14:52:28.439Z,5.33
2018-07-06T14:55:01.153Z,5.73
2018-07-06T14:57:39.627Z,5.30
2018-07-06T15:00:09.558Z,4.93
2018-07-06T15:02:39.579Z,4.37
2018-07-06T15:05:10.407Z,5.00
2018-07-06T15:07:41.135Z,4.50
2018-07-06T15:10:11.459Z,4.27
2018-07-06T15:12:45.185Z,3.60
2018-07-06T15:15:16.404Z,3.40
2018-07-06T15:17:55.427Z,3.43
2018-07-06T15:42:15.757Z,1.93
2018-07-06T15:44:46.204Z,2.10
2018-07-06T15:47:16.242Z,1.70
2018-07-06T15:49:48.192Z,2.00
2018-07-06T15:52:19.620Z,1.90
2018-07-06T15:54:51.790Z,2.30
2018-07-06T15:57:22.619Z,1.70
2018-07-06T15:59:53.149Z,1.93
2018-07-06T16:02:24.711Z,1.90
2018-07-06T16:04:55.557Z,1.53
2018-07-06T16:07:27.010Z,1.83
2018-07-06T16:09:57.121Z,1.70
2018-07-06T16:12:33.364Z,1.95
2018-07-06T16:15:04.415Z,1.87
2018-07-06T16:17:34.022Z,1.60
2018-07-06T16:20:04.351Z,1.80
2018-07-06T16:22:34.250Z,1.80
2018-07-06T16:25:04.081Z,1.53
2018-07-06T16:27:33.567Z,1.57
2018-07-06T16:30:05.040Z,1.80
2018-07-06T16:32:35.171Z,1.40
2018-07-06T16:35:05.248Z,1.67
2018-07-06T16:37:37.239Z,1.60
2018-07-06T16:40:07.656Z,1.97
2018-07-06T16:42:38.901Z,2.00
2018-07-06T16:45:09.231Z,2.00
2018-07-06T16:47:39.442Z,2.23
2018-07-06T16:50:10.226Z,1.93
2018-07-06T16:52:44.690Z,2.30
2018-07-06T16:55:15.128Z,2.13
2018-07-06T16:57:45.033Z,2.30
2018-07-06T17:00:19.554Z,2.13
2018-07-06T17:02:50.199Z,2.00
2018-07-06T17:05:21.143Z,2.40
2018-07-06T17:07:51.546Z,2.50
2018-07-06T17:10:22.586Z,2.40
2018-07-06T17:12:52.510Z,2.03
2018-07-06T17:15:23.133Z,2.63
2018-07-06T17:17:53.984Z,2.33
2018-07-06T17:20:27.380Z,2.57
2018-07-06T17:22:58.433Z,2.60
2018-07-06T17:25:28.624Z,3.10
2018-07-06T17:27:59.282Z,2.77
2018-07-06T17:30:29.386Z,2.73
2018-07-06T17:32:59.629Z,2.43
2018-07-06T17:35:30.140Z,3.00
2018-07-06T17:38:00.499Z,2.80
2018-07-06T17:40:30.477Z,3.33
2018-07-06T17:43:00.617Z,3.20
2018-07-06T17:45:31.113Z,2.90
2018-07-06T17:48:01.251Z,3.23
2018-07-06T17:50:32.931Z,3.40
2018-07-06T17:53:03.438Z,3.00
2018-07-06T17:55:34.155Z,2.93
2018-07-06T17:58:04.584Z,3.40
2018-07-06T18:00:34.619Z,3.30
2018-07-06T18:03:05.027Z,3.60
2018-07-06T18:05:35.371Z,3.10
2018-07-06T18:08:06.254Z,3.40
2018-07-06T18:10:36.700Z,2.80
2018-07-06T18:13:07.659Z,2.53
2018-07-06T18:15:38.397Z,2.97
2018-07-06T18:18:10.162Z,2.73
2018-07-06T18:20:40.584Z,2.77
2018-07-06T18:23:10.606Z,2.60
2018-07-06T18:25:41.231Z,2.70
2018-07-06T18:28:12.382Z,2.00
2018-07-06T18:30:43.518Z,2.40
2018-07-06T18:33:14.042Z,2.50
2018-07-06T18:35:44.159Z,2.30
2018-07-06T18:38:15.242Z,2.40
2018-07-06T18:40:45.620Z,2.70
2018-07-06T18:43:17.080Z,2.33
2018-07-06T18:45:47.091Z,1.83
2018-07-06T18:48:26.118Z,2.50
2018-07-06T18:50:56.142Z,2.93
2018-07-06T18:53:26.145Z,2.67
2018-07-06T18:55:56.980Z,2.30
2018-07-06T18:58:27.206Z,2.50
2018-07-06T19:00:58.248Z,2.60
2018-07-06T19:03:28.567Z,2.10
2018-07-06T19:05:59.508Z,2.50
2018-07-06T19:08:29.944Z,2.23
2018-07-06T19:11:01.197Z,2.57
2018-07-06T19:13:32.119Z,2.73
2018-07-06T19:16:02.549Z,2.60
2018-07-06T19:18:33.472Z,2.70
2018-07-06T19:21:03.997Z,2.83
2018-07-06T19:23:34.246Z,2.80
2018-07-06T19:26:04.240Z,3.17
2018-07-06T19:28:34.570Z,2.70
2018-07-06T19:31:04.572Z,3.10
2018-07-06T19:33:34.845Z,3.00
2018-07-06T19:36:09.228Z,2.70
2018-07-06T19:38:39.977Z,2.80
2018-07-06T19:41:10.089Z,2.80
2018-07-06T19:43:41.539Z,2.80
2018-07-06T19:46:12.556Z,2.90
2018-07-06T19:48:44.240Z,2.93
2018-07-06T19:51:14.439Z,3.03
2018-07-06T19:53:45.602Z,3.20
2018-07-06T19:56:17.450Z,2.80
2018-07-06T19:58:47.822Z,3.20
2018-07-06T20:01:18.101Z,3.13
2018-07-06T20:03:48.532Z,3.10
2018-07-06T20:06:20.260Z,2.80
2018-07-06T20:08:51.512Z,2.90
2018-07-06T20:11:21.635Z,2.90
2018-07-06T20:13:52.594Z,2.73
2018-07-06T20:16:23.517Z,3.20
2018-07-06T20:18:53.850Z,2.90
2018-07-06T20:21:24.567Z,3.63
2018-07-06T20:23:54.910Z,3.27
2018-07-06T20:26:25.119Z,3.43
2018-07-06T20:28:55.172Z,2.97
2018-07-06T20:31:25.669Z,2.50
2018-07-06T20:33:56.392Z,3.17
2018-07-06T20:36:26.685Z,3.00
2018-07-06T20:38:56.449Z,2.90
2018-07-06T20:41:26.453Z,3.60
2018-07-06T20:43:56.766Z,2.73
2018-07-06T20:46:28.140Z,2.87
2018-07-06T20:48:58.141Z,2.93
2018-07-06T20:51:28.468Z,3.13
2018-07-06T20:53:59.473Z,3.20
2018-07-06T20:56:30.273Z,3.50
2018-07-06T20:59:00.554Z,3.90
2018-07-06T21:01:31.593Z,3.40
2018-07-06T21:04:01.610Z,3.33
2018-07-06T21:06:31.636Z,3.60
2018-07-06T21:09:01.441Z,3.10
2018-07-06T21:11:31.250Z,3.87
2018-07-06T21:14:01.599Z,3.80
2018-07-06T21:16:31.797Z,3.73
2018-07-06T21:19:01.725Z,3.27
2018-07-06T21:21:32.143Z,3.10
2018-07-06T21:24:02.793Z,3.67
2018-07-06T21:26:33.000Z,2.80
2018-07-06T21:29:03.132Z,2.70
2018-07-06T21:31:33.551Z,3.50
2018-07-06T21:34:03.977Z,3.13
2018-07-06T21:36:34.175Z,2.97
2018-07-06T21:39:05.139Z,3.70
2018-07-06T21:41:35.126Z,3.40
2018-07-06T21:44:05.177Z,3.53
2018-07-06T21:46:35.589Z,3.47
2018-07-06T21:49:06.025Z,3.00
2018-07-06T21:51:36.233Z,3.40
2018-07-06T21:54:06.563Z,3.57
2018-07-06T21:56:37.198Z,3.60
2018-07-06T21:59:07.408Z,3.67
2018-07-06T22:01:37.432Z,3.40
2018-07-06T22:04:09.402Z,3.83
2018-07-06T22:06:39.826Z,3.50
2018-07-06T22:09:10.040Z,3.67
2018-07-06T22:11:40.234Z,3.73
2018-07-06T22:14:10.470Z,4.10
2018-07-06T22:16:40.585Z,4.23
2018-07-06T22:19:10.725Z,3.57
2018-07-06T22:21:41.050Z,4.30
2018-07-06T22:24:11.764Z,4.33
2018-07-06T22:26:42.105Z,4.57
2018-07-06T22:29:12.110Z,4.40
2018-07-06T22:31:42.438Z,4.23
2018-07-06T22:34:12.560Z,4.10
2018-07-06T22:36:42.556Z,4.30
2018-07-06T22:39:12.580Z,3.70
2018-07-06T22:41:42.593Z,4.90
2018-07-06T22:44:13.131Z,4.50
2018-07-06T22:46:43.142Z,4.13
2018-07-06T22:49:13.187Z,4.90
2018-07-06T22:51:43.198Z,4.27
2018-07-06T22:54:13.205Z,3.83
2018-07-06T22:56:43.645Z,4.03
2018-07-06T22:59:13.625Z,3.80
2018-07-06T23:01:44.377Z,4.40
2018-07-06T23:04:14.599Z,3.60
2018-07-06T23:06:44.510Z,3.90
2018-07-06T23:09:14.745Z,3.50
2018-07-06T23:11:44.556Z,4.70
2018-07-06T23:14:14.557Z,4.23
2018-07-06T23:16:44.791Z,4.10
2018-07-06T23:19:15.421Z,4.17
2018-07-06T23:21:45.680Z,3.93
2018-07-06T23:24:16.248Z,5.13
2018-07-06T23:26:46.695Z,4.90
2018-07-06T23:29:17.628Z,4.30
2018-07-06T23:31:47.633Z,4.03
2018-07-06T23:34:17.952Z,4.60
2018-07-06T23:36:48.093Z,4.50
2018-07-06T23:39:18.099Z,4.20
2018-07-06T23:41:48.625Z,4.57
2018-07-06T23:44:18.757Z,4.43
2018-07-06T23:46:49.080Z,4.47
2018-07-06T23:49:19.101Z,4.80
2018-07-06T23:51:49.012Z,4.47
2018-07-06T23:54:19.007Z,4.80
2018-07-06T23:56:48.829Z,4.97
2018-07-06T23:59:19.163Z,4.97
